Seafalcon — 9HA2814 — position and weather

sailwx.info

Track history (hours):
 
Tides and Currents Weather Stations Pressure Air Temp Water Temp Dewpoint Dewpoint Depression Visibility Wind Speed Wind Dir Waves Ship Positions

Seafalcon

Last reported at 2016-Nov-26 14:32 UTC. Time now 2016-Dec-04 06:07 UTC.
Position N 01°14' E 104°02'.

Length 250 m; draft 8.1 m.

Type: Tanker. MMSI: 256078000.

Date/timePositionNaut miles runAvg speedWind from/ knotsBaromVisibWave heightAir tempDewpointWater temp
2016-Nov-26 14:32N 01°14' E 104°02'7 6.7
2016-Nov-26 13:32N 01°16' E 103°55'2 1.4
2016-Nov-26 12:26N 01°16' E 103°54'0 0.0
2016-Nov-26 11:29N 01°15' E 103°54'0 0.1
2016-Nov-26 10:29N 01°15' E 103°54'0 0.1
2016-Nov-26 09:23N 01°15' E 103°54'0 0.2
2016-Nov-26 08:26N 01°16' E 103°54'0 0.1
2016-Nov-26 06:23N 01°16' E 103°54'0 0.0
2016-Nov-26 04:29N 01°16' E 103°54'0 0.2
2016-Nov-26 03:23N 01°16' E 103°54'0 0.1
2016-Nov-26 02:26N 01°15' E 103°54'0 0.0
2016-Nov-26 00:11N 01°15' E 103°54'0 0.0
2016-Nov-25 22:17N 01°16' E 103°54'0 0.1
2016-Nov-25 21:29N 01°15' E 103°54'0 0.0
2016-Nov-25 20:23N 01°15' E 103°54'0 0.0
2016-Nov-25 18:05N 01°15' E 103°54'0 0.0
2016-Nov-25 17:11N 01°15' E 103°54'0 0.0
2016-Nov-25 16:23N 01°15' E 103°54'0 0.0
2016-Nov-25 15:32N 01°15' E 103°54'1 0.8
2016-Nov-25 14:33N 01°15' E 103°54'5 5.5
2016-Nov-25 13:33N 01°16' E 103°59'4 3.8
2016-Nov-25 12:32N 01°16' E 104°03'  
Track history (hours):
 
Tides and Currents Weather Stations Pressure Air Temp Water Temp Dewpoint Dewpoint Depression Visibility Wind Speed Wind Dir Waves Ship Positions

Seafalcon

Last reported at 2016-Nov-26 14:32 UTC. Time now 2016-Dec-04 06:07 UTC.
Position N 01°14' E 104°02'.

Length 250 m; draft 8.1 m.

Type: Tanker. MMSI: 256078000.

Date/timePositionNaut miles runAvg speedWind from/ knotsBaromVisibWave heightAir tempDewpointWater temp
2016-Nov-26 14:32N 01°14' E 104°02'7 6.7
2016-Nov-26 13:32N 01°16' E 103°55'2 1.4
2016-Nov-26 12:26N 01°16' E 103°54'0 0.0
2016-Nov-26 11:29N 01°15' E 103°54'0 0.1
2016-Nov-26 10:29N 01°15' E 103°54'0 0.1
2016-Nov-26 09:23N 01°15' E 103°54'0 0.2
2016-Nov-26 08:26N 01°16' E 103°54'0 0.1
2016-Nov-26 06:23N 01°16' E 103°54'0 0.0
2016-Nov-26 04:29N 01°16' E 103°54'0 0.2
2016-Nov-26 03:23N 01°16' E 103°54'0 0.1
2016-Nov-26 02:26N 01°15' E 103°54'0 0.0
2016-Nov-26 00:11N 01°15' E 103°54'0 0.0
2016-Nov-25 22:17N 01°16' E 103°54'0 0.1
2016-Nov-25 21:29N 01°15' E 103°54'0 0.0
2016-Nov-25 20:23N 01°15' E 103°54'0 0.0
2016-Nov-25 18:05N 01°15' E 103°54'0 0.0
2016-Nov-25 17:11N 01°15' E 103°54'0 0.0
2016-Nov-25 16:23N 01°15' E 103°54'0 0.0
2016-Nov-25 15:32N 01°15' E 103°54'1 0.8
2016-Nov-25 14:33N 01°15' E 103°54'5 5.5
2016-Nov-25 13:33N 01°16' E 103°59'4 3.8
2016-Nov-25 12:32N 01°16' E 104°03'  

Dump ship's entire track history